Time;durP1;ratioP1;P1;durP2;ratioP2;P2;SDS_P1;SDS_P2;PMS_P1;PMS_P2;Temp;Humidity;BMP_temperature;BMP_pressure;BME280_temperature;BME280_humidity;BME280_pressure;Samples;Min_cycle;Max_cycle;Signal;HPM_P1;HPM_P2
2023/11/09 00:01:32;;;;;;;8.18;1.67;;;9.20;99.90;;;;;;5126369;28;20023;-53
2023/11/09 00:03:57;;;;;;;6.40;1.40;;;9.20;99.90;;;;;;5126299;28;20027;-53
2023/11/09 00:06:23;;;;;;;10.20;2.05;;;9.20;99.90;;;;;;5125150;28;20059;-52
2023/11/09 00:08:49;;;;;;;9.88;1.77;;;9.10;99.90;;;;;;5126483;28;20076;-54
2023/11/09 00:11:14;;;;;;;11.77;2.42;;;9.00;99.90;;;;;;5125251;28;20031;-54
2023/11/09 00:13:40;;;;;;;8.43;1.80;;;9.00;99.90;;;;;;5126397;28;20047;-51
2023/11/09 00:16:06;;;;;;;10.15;2.15;;;9.00;99.90;;;;;;5125034;28;20058;-50
2023/11/09 00:18:32;;;;;;;8.88;2.15;;;9.00;99.90;;;;;;5126208;28;20027;-51
2023/11/09 00:20:58;;;;;;;8.98;2.33;;;9.00;99.90;;;;;;5125063;28;20289;-50
2023/11/09 00:23:23;;;;;;;13.15;2.65;;;9.10;99.90;;;;;;5126076;28;20083;-50
2023/11/09 00:25:49;;;;;;;7.82;1.80;;;9.10;99.90;;;;;;5126003;28;20016;-51
2023/11/09 00:28:15;;;;;;;7.03;1.75;;;9.10;99.90;;;;;;5126018;28;20041;-53
2023/11/09 00:30:41;;;;;;;12.35;2.33;;;9.10;99.90;;;;;;5126161;28;20297;-50
2023/11/09 00:33:07;;;;;;;7.63;1.83;;;9.10;99.90;;;;;;5126182;28;20031;-53
2023/11/09 00:35:33;;;;;;;7.00;1.63;;;9.00;99.90;;;;;;5125774;28;20024;-53
2023/11/09 00:38:00;;;;;;;9.35;1.60;;;9.00;99.90;;;;;;5124966;28;20019;-51
2023/11/09 00:40:26;;;;;;;6.72;1.58;;;9.00;99.90;;;;;;5126220;28;20265;-53
2023/11/09 00:42:52;;;;;;;3.60;1.17;;;9.00;99.90;;;;;;5125977;28;20087;-53
2023/11/09 00:45:18;;;;;;;6.40;1.50;;;8.90;99.90;;;;;;5125073;28;20024;-53
2023/11/09 00:47:45;;;;;;;5.30;1.30;;;8.90;99.90;;;;;;5124943;28;20027;-51
2023/11/09 00:50:11;;;;;;;3.67;1.23;;;9.00;99.90;;;;;;5108079;28;20031;-53
2023/11/09 00:52:37;;;;;;;5.03;1.75;;;9.00;99.90;;;;;;5125794;28;20024;-53
2023/11/09 00:55:03;;;;;;;7.15;1.40;;;9.00;99.90;;;;;;5125977;28;20020;-52
2023/11/09 00:57:31;;;;;;;7.60;1.55;;;8.90;99.90;;;;;;5125742;28;20257;-53
2023/11/09 01:00:00;;;;;;;5.30;1.38;;;8.90;99.90;;;;;;5129849;28;20015;-53
2023/11/09 01:02:26;;;;;;;8.82;1.42;;;9.00;99.90;;;;;;5129418;28;20020;-52
2023/11/09 01:04:52;;;;;;;6.60;1.42;;;9.00;99.90;;;;;;5129784;28;20088;-52
2023/11/09 01:07:18;;;;;;;10.75;1.98;;;9.00;99.90;;;;;;5129220;28;20051;-52
2023/11/09 01:09:45;;;;;;;9.70;1.80;;;8.90;99.90;;;;;;5128532;28;20047;-52
2023/11/09 01:12:11;;;;;;;10.85;1.70;;;8.80;99.90;;;;;;5129577;28;20138;-53
2023/11/09 01:14:37;;;;;;;4.45;1.40;;;8.80;99.90;;;;;;5129623;28;20015;-52
2023/11/09 01:17:03;;;;;;;6.43;1.50;;;8.80;99.90;;;;;;5129634;28;20253;-53
2023/11/09 01:19:28;;;;;;;7.25;1.25;;;8.80;99.90;;;;;;5129046;28;20027;-56
2023/11/09 01:21:54;;;;;;;10.77;2.25;;;8.70;99.90;;;;;;5129452;28;20034;-51
2023/11/09 01:24:20;;;;;;;9.05;1.50;;;8.70;99.90;;;;;;5129458;28;20042;-51
2023/11/09 01:26:45;;;;;;;4.80;1.40;;;8.60;99.90;;;;;;5129459;28;20032;-53
2023/11/09 01:29:13;;;;;;;5.47;1.45;;;8.60;99.90;;;;;;5128358;28;20039;-52
2023/11/09 01:31:39;;;;;;;8.00;1.80;;;8.60;99.90;;;;;;5111464;28;20086;-49
2023/11/09 01:34:05;;;;;;;10.05;1.40;;;8.50;99.90;;;;;;5129078;28;20028;-52
2023/11/09 01:36:30;;;;;;;9.00;1.95;;;8.50;99.90;;;;;;5128202;28;20020;-52
2023/11/09 01:38:56;;;;;;;8.45;1.70;;;8.50;99.90;;;;;;5129153;28;20050;-52
2023/11/09 01:41:22;;;;;;;4.97;1.63;;;8.50;99.90;;;;;;5129211;28;20095;-53
2023/11/09 01:43:57;;;;;;;8.68;1.88;;;8.50;99.90;;;;;;5128977;28;20042;-53
2023/11/09 01:46:27;;;;;;;7.57;1.27;;;8.50;99.90;;;;;;5128918;28;20055;-53
2023/11/09 01:48:56;;;;;;;8.70;1.57;;;8.40;99.90;;;;;;5129165;28;20027;-53
2023/11/09 01:51:21;;;;;;;8.98;1.70;;;8.40;99.90;;;;;;5127585;28;20292;-53
2023/11/09 01:53:47;;;;;;;9.98;1.70;;;8.40;99.90;;;;;;5127887;28;20031;-53
2023/11/09 01:56:14;;;;;;;10.93;1.88;;;8.30;99.90;;;;;;5110741;28;20176;-53
2023/11/09 01:58:44;;;;;;;9.82;1.63;;;8.30;99.90;;;;;;5128799;28;20083;-53
2023/11/09 02:01:11;;;;;;;7.10;1.80;;;8.30;99.90;;;;;;5127753;28;20055;-53
2023/11/09 02:03:38;;;;;;;9.95;1.83;;;8.20;99.90;;;;;;5127705;28;20055;-53
2023/11/09 02:06:04;;;;;;;7.05;1.88;;;8.30;99.90;;;;;;5128072;28;20034;-53
2023/11/09 02:08:30;;;;;;;8.13;1.77;;;8.30;99.90;;;;;;5126818;28;20043;-52
2023/11/09 02:10:55;;;;;;;5.95;1.45;;;8.20;99.90;;;;;;5128476;28;20158;-53
2023/11/09 02:13:21;;;;;;;10.13;2.13;;;8.20;99.90;;;;;;5128082;28;20023;-49
2023/11/09 02:15:47;;;;;;;11.60;1.65;;;8.10;99.90;;;;;;5128173;28;20020;-50
2023/11/09 02:18:13;;;;;;;6.93;1.63;;;8.10;99.90;;;;;;5128034;28;20023;-49
2023/11/09 02:20:38;;;;;;;8.85;1.70;;;8.10;99.90;;;;;;5128724;28;20156;-50
2023/11/09 02:23:04;;;;;;;9.05;2.03;;;8.10;99.90;;;;;;5127214;28;20093;-50
2023/11/09 02:25:30;;;;;;;9.88;1.48;;;8.10;99.90;;;;;;5110109;28;20023;-50
2023/11/09 02:27:55;;;;;;;10.48;2.13;;;8.00;99.90;;;;;;5127078;28;20162;-50
2023/11/09 02:30:21;;;;;;;10.05;1.60;;;8.00;99.90;;;;;;5128062;28;20285;-47
2023/11/09 02:32:47;;;;;;;9.65;1.80;;;8.00;99.90;;;;;;5127978;28;20023;-47
2023/11/09 02:35:14;;;;;;;6.22;1.35;;;8.00;99.90;;;;;;5127995;28;20078;-46
2023/11/09 02:37:40;;;;;;;6.85;1.80;;;8.00;99.90;;;;;;5127698;28;20051;-51
2023/11/09 02:40:06;;;;;;;11.80;1.92;;;8.00;99.90;;;;;;5127782;28;20277;-47
2023/11/09 02:42:32;;;;;;;10.98;1.63;;;8.00;99.90;;;;;;5127886;28;20020;-49
2023/11/09 02:44:58;;;;;;;10.55;1.60;;;8.00;99.90;;;;;;5127735;28;20148;-49
2023/11/09 02:47:23;;;;;;;12.77;2.20;;;8.10;99.90;;;;;;5126821;28;20057;-49
2023/11/09 02:49:49;;;;;;;12.25;1.77;;;8.10;99.90;;;;;;5127707;28;20177;-49
2023/11/09 02:52:15;;;;;;;13.02;2.08;;;8.10;99.90;;;;;;5127434;28;20058;-49
2023/11/09 02:54:40;;;;;;;9.88;1.75;;;8.10;99.90;;;;;;5127577;28;20027;-50
2023/11/09 02:57:06;;;;;;;8.63;1.65;;;8.20;99.90;;;;;;5126566;28;20026;-49
2023/11/09 02:59:31;;;;;;;11.65;2.05;;;8.30;99.90;;;;;;5126601;28;20031;-46
2023/11/09 03:01:57;;;;;;;6.97;1.60;;;8.30;99.90;;;;;;5127456;28;20042;-46
2023/11/09 03:04:23;;;;;;;9.43;1.60;;;8.30;99.90;;;;;;5127318;28;20027;-46
2023/11/09 03:06:48;;;;;;;13.35;1.70;;;8.30;99.90;;;;;;5127072;28;20273;-46
2023/11/09 03:09:17;;;;;;;11.48;1.77;;;8.40;99.90;;;;;;5126909;28;20055;-46
2023/11/09 03:11:43;;;;;;;10.43;2.30;;;8.40;99.90;;;;;;5126259;28;20342;-46
2023/11/09 03:14:08;;;;;;;20.83;2.30;;;8.60;99.90;;;;;;5126023;28;20031;-46
2023/11/09 03:16:35;;;;;;;9.15;1.52;;;8.70;99.90;;;;;;5127083;28;20198;-46
2023/11/09 03:19:02;;;;;;;6.97;2.28;;;8.70;99.90;;;;;;5126067;28;20020;-46
2023/11/09 03:21:27;;;;;;;14.88;2.10;;;8.70;99.90;;;;;;5126184;28;20035;-46
2023/11/09 03:23:53;;;;;;;10.50;1.63;;;8.80;99.90;;;;;;5127208;28;20188;-46
2023/11/09 03:26:18;;;;;;;10.77;1.67;;;8.80;99.90;;;;;;5108915;28;20047;-46
2023/11/09 03:28:44;;;;;;;10.30;2.10;;;8.80;99.90;;;;;;5127067;28;20043;-46
2023/11/09 03:31:11;;;;;;;12.93;2.53;;;8.80;99.90;;;;;;5126881;28;20104;-46
2023/11/09 03:33:37;;;;;;;7.20;1.60;;;8.80;99.90;;;;;;5126655;28;20077;-46
2023/11/09 03:36:02;;;;;;;11.52;1.52;;;8.80;99.90;;;;;;5108838;28;20285;-49
2023/11/09 03:38:28;;;;;;;9.10;1.65;;;8.90;99.90;;;;;;5126724;28;20019;-46
2023/11/09 03:40:54;;;;;;;9.02;1.75;;;8.90;99.90;;;;;;5126273;28;20023;-46
2023/11/09 03:43:19;;;;;;;14.15;1.60;;;8.90;99.90;;;;;;5125790;28;20031;-46
2023/11/09 03:45:45;;;;;;;7.93;1.52;;;9.00;99.90;;;;;;5126790;28;20269;-46
2023/11/09 03:48:12;;;;;;;11.00;1.80;;;9.10;99.90;;;;;;5126497;28;20022;-46
2023/11/09 03:50:37;;;;;;;9.25;1.88;;;9.10;99.90;;;;;;5125570;28;20099;-46
2023/11/09 03:53:03;;;;;;;8.82;1.55;;;9.10;99.90;;;;;;5126516;28;20031;-47
2023/11/09 03:55:29;;;;;;;12.05;1.73;;;9.10;99.90;;;;;;5126500;28;20091;-47
2023/11/09 03:57:54;;;;;;;7.05;1.63;;;9.20;99.90;;;;;;5126086;28;20089;-46
2023/11/09 04:00:20;;;;;;;10.45;1.45;;;9.20;99.90;;;;;;5126509;28;20092;-47
2023/11/09 04:02:46;;;;;;;11.20;1.85;;;9.20;99.90;;;;;;5125532;28;20016;-47
2023/11/09 04:05:13;;;;;;;11.02;2.00;;;9.20;99.90;;;;;;5126505;28;20124;-47
2023/11/09 04:07:41;;;;;;;8.13;1.70;;;9.20;99.90;;;;;;5126109;28;20048;-48
2023/11/09 04:10:09;;;;;;;8.77;1.65;;;9.20;99.90;;;;;;5126144;28;20023;-47
2023/11/09 04:12:36;;;;;;;5.90;1.17;;;9.30;99.90;;;;;;5125108;28;20059;-46
2023/11/09 04:15:04;;;;;;;11.80;1.80;;;9.30;99.90;;;;;;5126291;28;20039;-47
2023/11/09 04:17:31;;;;;;;10.95;1.77;;;9.30;99.90;;;;;;5126359;28;20030;-47
2023/11/09 04:19:57;;;;;;;13.25;1.98;;;9.30;99.90;;;;;;5125995;28;20061;-46
2023/11/09 04:22:22;;;;;;;10.50;2.33;;;9.30;99.90;;;;;;5126149;28;20054;-46
2023/11/09 04:24:48;;;;;;;6.95;1.27;;;9.30;99.90;;;;;;5125463;28;20039;-47
2023/11/09 04:27:15;;;;;;;7.28;1.58;;;9.40;99.90;;;;;;5126126;28;20031;-46
2023/11/09 04:29:42;;;;;;;10.02;1.80;;;9.40;99.90;;;;;;5125212;28;20031;-47
2023/11/09 04:32:08;;;;;;;10.38;1.65;;;9.40;99.90;;;;;;5128227;28;20023;-50
2023/11/09 04:34:35;;;;;;;10.05;1.65;;;9.40;99.90;;;;;;5130377;28;20223;-48
2023/11/09 04:37:01;;;;;;;12.63;1.83;;;9.40;99.90;;;;;;5130398;28;20023;-46
2023/11/09 04:39:31;;;;;;;7.55;1.90;;;9.40;99.90;;;;;;5129052;28;20023;-47
2023/11/09 04:42:00;;;;;;;13.60;2.55;;;9.40;99.90;;;;;;5130364;28;20031;-46
2023/11/09 04:44:29;;;;;;;7.63;1.52;;;9.40;99.90;;;;;;5112028;28;20170;-49
2023/11/09 04:46:57;;;;;;;4.95;1.83;;;9.30;99.90;;;;;;5130156;28;20068;-46
2023/11/09 04:49:27;;;;;;;5.13;1.23;;;9.20;99.90;;;;;;5130194;28;20036;-47
2023/11/09 04:51:54;;;;;;;11.32;2.42;;;9.20;99.90;;;;;;5128956;28;20035;-47
2023/11/09 04:54:20;;;;;;;6.53;1.60;;;9.10;99.90;;;;;;5129839;28;20153;-46
2023/11/09 04:58:34;;;;;;;13.30;1.77;;;9.10;99.90;;;;;;5129008;28;20285;-46
2023/11/09 05:07:40;;;;;;;9.40;1.60;;;8.60;99.90;;;;;;5128803;28;20144;-50
2023/11/09 05:10:07;;;;;;;18.25;2.20;;;8.10;99.90;;;;;;5128662;28;20031;-50
2023/11/09 05:12:33;;;;;;;10.63;1.67;;;7.90;99.90;;;;;;5129534;28;20059;-50
2023/11/09 05:15:00;;;;;;;5.00;1.40;;;7.80;99.90;;;;;;5128499;28;20049;-50
2023/11/09 05:17:26;;;;;;;14.05;1.60;;;7.80;99.90;;;;;;5129323;28;20077;-50
2023/11/09 05:19:51;;;;;;;4.93;1.15;;;7.80;99.90;;;;;;5129508;28;20211;-50
2023/11/09 05:22:17;;;;;;;8.15;1.10;;;7.80;99.90;;;;;;5128415;28;20057;-48
2023/11/09 05:24:43;;;;;;;2.40;0.90;;;7.70;99.90;;;;;;5129458;28;20031;-50
2023/11/09 05:27:10;;;;;;;7.25;1.40;;;7.80;99.90;;;;;;5129383;28;20031;-49
2023/11/09 05:29:36;;;;;;;6.07;1.40;;;7.70;99.90;;;;;;5129072;28;20084;-49
2023/11/09 05:32:06;;;;;;;9.35;1.50;;;7.70;99.90;;;;;;5128934;28;20166;-49
2023/11/09 05:34:37;;;;;;;7.80;1.35;;;7.70;99.90;;;;;;5129083;28;20205;-50
2023/11/09 05:37:03;;;;;;;4.20;1.20;;;7.60;99.90;;;;;;5129226;28;20026;-49
2023/11/09 05:39:29;;;;;;;4.18;1.00;;;7.50;99.90;;;;;;5129318;28;20023;-50
2023/11/09 05:41:55;;;;;;;3.22;1.20;;;7.60;99.90;;;;;;5127955;28;20039;-50
2023/11/09 05:44:21;;;;;;;4.60;1.20;;;7.60;99.90;;;;;;5128153;28;20047;-50
2023/11/09 05:46:47;;;;;;;3.17;1.20;;;7.60;99.90;;;;;;5128536;28;20035;-50
2023/11/09 05:49:13;;;;;;;7.53;0.98;;;7.70;99.90;;;;;;5128926;28;20273;-49
2023/11/09 05:51:46;;;;;;;3.85;1.30;;;7.70;99.90;;;;;;5128940;28;20043;-49
2023/11/09 05:54:12;;;;;;;4.20;0.77;;;7.70;99.90;;;;;;5128867;28;20027;-49
2023/11/09 05:56:37;;;;;;;4.95;0.90;;;7.50;99.90;;;;;;5128900;28;20026;-49
2023/11/09 05:59:03;;;;;;;9.73;1.30;;;7.50;99.90;;;;;;5128795;28;20049;-50
2023/11/09 06:01:30;;;;;;;9.07;1.70;;;7.60;99.90;;;;;;5128527;28;20024;-48
2023/11/09 06:04:00;;;;;;;5.40;1.30;;;7.60;99.90;;;;;;5128631;28;20038;-47
2023/11/09 06:06:26;;;;;;;4.40;1.00;;;7.60;99.90;;;;;;5128323;28;20044;-45
2023/11/09 06:08:52;;;;;;;5.90;1.10;;;7.70;99.90;;;;;;5128489;28;20032;-46
2023/11/09 06:11:17;;;;;;;11.00;1.85;;;7.70;99.90;;;;;;5127215;28;20031;-48
2023/11/09 06:13:43;;;;;;;4.70;1.10;;;7.70;99.90;;;;;;5127429;28;20028;-49
2023/11/09 06:16:09;;;;;;;8.23;1.65;;;7.70;99.90;;;;;;5128523;28;20030;-50
2023/11/09 06:18:35;;;;;;;5.32;1.33;;;7.70;99.90;;;;;;5127887;28;20034;-49
2023/11/09 06:21:00;;;;;;;10.55;1.90;;;7.60;99.90;;;;;;5110397;28;20055;-48
2023/11/09 06:23:29;;;;;;;6.65;1.35;;;7.70;99.90;;;;;;5128148;28;20203;-48
2023/11/09 06:25:55;;;;;;;5.13;1.23;;;7.60;99.90;;;;;;5126997;28;20091;-49
2023/11/09 06:28:24;;;;;;;6.20;1.40;;;7.60;99.90;;;;;;5127023;28;20028;-48
2023/11/09 06:30:53;;;;;;;5.50;1.15;;;7.50;99.90;;;;;;5128202;28;20059;-47
2023/11/09 06:33:19;;;;;;;8.85;1.40;;;7.50;99.90;;;;;;5127598;28;20038;-47
2023/11/09 06:35:48;;;;;;;5.70;1.70;;;7.50;99.90;;;;;;5127846;28;20032;-51
2023/11/09 06:38:14;;;;;;;9.13;1.83;;;7.50;99.90;;;;;;5126897;28;20034;-48
2023/11/09 06:40:40;;;;;;;7.35;1.45;;;7.50;99.90;;;;;;5128017;28;20277;-49
2023/11/09 06:43:06;;;;;;;12.43;3.60;;;7.50;99.90;;;;;;5126603;28;20321;-49
2023/11/09 06:45:32;;;;;;;5.43;1.30;;;7.50;99.90;;;;;;5126870;28;20028;-49
2023/11/09 06:47:58;;;;;;;5.07;1.63;;;7.50;99.90;;;;;;5127689;28;20062;-49
2023/11/09 06:50:24;;;;;;;8.85;1.83;;;7.50;99.90;;;;;;5126763;28;20088;-49
2023/11/09 06:52:55;;;;;;;7.68;2.03;;;7.50;99.90;;;;;;5128066;28;20040;-48
2023/11/09 06:55:21;;;;;;;11.75;1.88;;;7.50;99.90;;;;;;5127174;28;20053;-49
2023/11/09 06:57:47;;;;;;;7.72;1.60;;;7.50;99.90;;;;;;5127223;28;20270;-49
2023/11/09 07:00:13;;;;;;;7.35;1.73;;;7.50;99.90;;;;;;5127324;28;20050;-49
2023/11/09 07:02:47;;;;;;;8.30;1.60;;;7.50;99.90;;;;;;5127434;28;20272;-49
2023/11/09 07:05:13;;;;;;;8.00;1.77;;;7.50;99.90;;;;;;5126403;28;20050;-49
2023/11/09 07:07:39;;;;;;;9.25;1.58;;;7.50;99.90;;;;;;5126843;28;20317;-49
2023/11/09 07:10:08;;;;;;;8.45;1.23;;;7.50;99.90;;;;;;5126034;28;20058;-49
2023/11/09 07:12:37;;;;;;;7.88;1.60;;;7.50;99.90;;;;;;5127172;28;20336;-49
2023/11/09 07:15:03;;;;;;;7.83;2.00;;;7.50;99.90;;;;;;5126228;28;20031;-49
2023/11/09 07:17:29;;;;;;;8.68;2.15;;;7.40;99.90;;;;;;5127067;28;20042;-47
2023/11/09 07:19:55;;;;;;;11.25;2.03;;;7.40;99.90;;;;;;5126889;28;20032;-46
2023/11/09 07:22:20;;;;;;;9.40;2.08;;;7.40;99.90;;;;;;5125950;28;20281;-46
2023/11/09 07:24:49;;;;;;;10.32;2.15;;;7.40;99.90;;;;;;5126958;28;20023;-48
2023/11/09 07:27:16;;;;;;;7.05;1.10;;;7.40;99.90;;;;;;5126849;28;20062;-46
2023/11/09 07:29:41;;;;;;;6.70;1.80;;;7.50;99.90;;;;;;5126622;28;20028;-49
2023/11/09 07:32:07;;;;;;;6.30;1.33;;;7.50;99.90;;;;;;5126525;28;20027;-48
2023/11/09 07:34:33;;;;;;;8.25;1.35;;;7.50;99.90;;;;;;5126750;28;20031;-50
2023/11/09 07:36:59;;;;;;;6.40;1.40;;;7.50;99.90;;;;;;5125758;28;20027;-49
2023/11/09 07:39:27;;;;;;;5.65;1.55;;;7.50;99.90;;;;;;5125518;28;20083;-48
2023/11/09 07:42:04;;;;;;;8.65;1.48;;;7.50;99.90;;;;;;5126763;28;20285;-48
2023/11/09 07:44:30;;;;;;;6.20;1.50;;;7.50;99.90;;;;;;5125624;28;20019;-48
2023/11/09 07:46:57;;;;;;;11.88;1.65;;;7.50;99.90;;;;;;5125397;28;20033;-49
2023/11/09 07:49:24;;;;;;;6.75;1.48;;;7.50;99.90;;;;;;5126610;28;20024;-50
2023/11/09 07:51:52;;;;;;;11.07;1.73;;;7.50;99.90;;;;;;5126397;28;20091;-50
2023/11/09 07:54:21;;;;;;;11.18;2.00;;;7.60;99.90;;;;;;5126409;28;20273;-49
2023/11/09 07:56:47;;;;;;;6.32;1.60;;;7.50;99.90;;;;;;5126484;28;20019;-49
2023/11/09 07:59:13;;;;;;;9.90;1.52;;;7.60;99.90;;;;;;5126460;28;20292;-49
2023/11/09 08:01:39;;;;;;;14.30;1.92;;;7.70;99.90;;;;;;5126250;28;20356;-49
2023/11/09 08:04:06;;;;;;;5.57;1.27;;;7.80;99.90;;;;;;5125916;28;20049;-46
2023/11/09 08:06:32;;;;;;;4.80;1.20;;;7.80;99.90;;;;;;5125315;28;20321;-49
2023/11/09 08:08:59;;;;;;;8.45;1.40;;;7.90;99.90;;;;;;5126081;28;20043;-49
2023/11/09 08:11:26;;;;;;;4.88;1.05;;;8.00;99.90;;;;;;5125890;28;20285;-48
2023/11/09 08:13:52;;;;;;;10.02;1.80;;;8.00;99.90;;;;;;5126113;28;20031;-48
2023/11/09 08:16:18;;;;;;;9.05;1.80;;;8.10;99.90;;;;;;5124890;28;20253;-48
2023/11/09 08:18:44;;;;;;;9.95;1.73;;;8.20;99.90;;;;;;5126003;28;20030;-48
2023/11/09 08:21:10;;;;;;;7.50;1.35;;;8.30;99.90;;;;;;5125868;28;20057;-48
2023/11/09 08:23:39;;;;;;;7.72;1.92;;;8.40;99.90;;;;;;5125678;28;20301;-46
2023/11/09 08:26:05;;;;;;;7.77;1.33;;;8.40;99.90;;;;;;5125765;28;20028;-49
2023/11/09 08:28:31;;;;;;;7.88;1.70;;;8.50;99.90;;;;;;5125477;28;20073;-48
2023/11/09 08:30:58;;;;;;;6.40;1.45;;;8.60;99.90;;;;;;5125903;28;20228;-47
2023/11/09 08:33:24;;;;;;;16.48;2.15;;;8.80;99.90;;;;;;5124676;28;20238;-47
2023/11/09 08:35:52;;;;;;;9.13;1.60;;;8.80;99.90;;;;;;5125545;28;20030;-47
2023/11/09 08:38:18;;;;;;;4.15;1.20;;;8.80;99.90;;;;;;5125939;28;20062;-48
2023/11/09 08:40:48;;;;;;;8.35;1.83;;;9.00;99.90;;;;;;5107404;28;20023;-49
2023/11/09 08:43:13;;;;;;;7.82;2.03;;;9.10;99.90;;;;;;5125010;28;20016;-49
2023/11/09 08:45:39;;;;;;;6.25;1.23;;;9.10;99.90;;;;;;5125561;28;20032;-50
2023/11/09 08:48:05;;;;;;;8.85;1.38;;;9.10;99.90;;;;;;5125482;28;20042;-50
2023/11/09 08:50:31;;;;;;;7.68;1.20;;;9.00;99.90;;;;;;5125779;28;20039;-50
2023/11/09 08:52:58;;;;;;;11.10;1.40;;;9.00;99.90;;;;;;5125604;28;20062;-49
2023/11/09 08:55:25;;;;;;;9.13;1.30;;;8.90;99.90;;;;;;5125446;28;20016;-48
2023/11/09 08:57:51;;;;;;;10.00;1.60;;;8.90;99.90;;;;;;5125023;28;20045;-50
2023/11/09 09:00:17;;;;;;;8.30;1.23;;;9.00;99.90;;;;;;5125397;28;20297;-48
2023/11/09 09:02:50;;;;;;;5.15;1.40;;;9.00;99.90;;;;;;5124456;28;20031;-50
2023/11/09 09:05:17;;;;;;;7.18;1.20;;;9.10;99.90;;;;;;5125288;28;20034;-50
2023/11/09 09:07:43;;;;;;;10.40;2.00;;;9.20;99.90;;;;;;5125282;28;20055;-49
2023/11/09 09:10:15;;;;;;;4.47;0.90;;;9.40;99.90;;;;;;5125735;28;20028;-50
2023/11/09 09:12:44;;;;;;;6.05;1.52;;;9.50;99.90;;;;;;5125425;28;20281;-49
2023/11/09 09:15:13;;;;;;;7.20;1.35;;;9.50;99.90;;;;;;5125153;28;20027;-50
2023/11/09 09:17:48;;;;;;;5.55;1.58;;;9.70;99.90;;;;;;5125554;28;20030;-50
2023/11/09 09:20:18;;;;;;;6.90;1.17;;;10.40;99.90;;;;;;5129286;28;20023;-51
2023/11/09 09:22:45;;;;;;;;;;;11.90;99.90;;;;;;5129978;28;20330;-51
2023/11/09 09:25:10;;;;;;;3.25;0.90;;;12.70;99.90;;;;;;5128247;28;19919;-51
2023/11/09 09:27:46;;;;;;;3.67;0.82;;;12.50;99.90;;;;;;5129039;28;20090;-51
2023/11/09 09:30:18;;;;;;;6.10;1.30;;;12.80;99.10;;;;;;5128058;28;20129;-51
2023/11/09 09:32:47;;;;;;;7.82;1.30;;;13.20;99.10;;;;;;5128652;28;20036;-48
2023/11/09 09:35:13;;;;;;;3.25;1.08;;;12.80;95.30;;;;;;5127909;28;20219;-47
2023/11/09 09:37:40;;;;;;;11.43;1.10;;;13.10;93.80;;;;;;5127985;28;20020;-50
2023/11/09 09:40:19;;;;;;;10.70;1.40;;;11.70;99.90;;;;;;5129037;28;20100;-49
2023/11/09 09:42:46;;;;;;;8.30;1.67;;;11.20;99.90;;;;;;5129025;28;20023;-50
2023/11/09 09:45:30;;;;;;;7.68;1.23;;;11.60;99.90;;;;;;5129442;28;20264;-49
2023/11/09 09:47:59;;;;;;;5.47;1.40;;;11.50;98.90;;;;;;5128782;28;20051;-51
2023/11/09 09:50:29;;;;;;;9.43;1.35;;;11.10;99.90;;;;;;5128415;28;20050;-51
2023/11/09 09:52:56;;;;;;;8.00;1.73;;;10.70;99.90;;;;;;5128589;28;20034;-51
2023/11/09 09:55:26;;;;;;;5.53;1.83;;;10.30;99.90;;;;;;5110316;28;20019;-49
2023/11/09 09:57:52;;;;;;;8.30;1.48;;;10.30;99.90;;;;;;5127384;28;20023;-48
2023/11/09 10:00:28;;;;;;;7.20;1.45;;;10.40;99.90;;;;;;5128312;28;20068;-50
2023/11/09 10:02:55;;;;;;;6.55;1.38;;;10.30;99.90;;;;;;5127469;28;20050;-50
2023/11/09 10:05:25;;;;;;;8.80;1.83;;;10.00;99.90;;;;;;5128315;28;20218;-50
2023/11/09 10:08:04;;;;;;;;;;;9.80;99.90;;;;;;5127489;28;20066;-48
2023/11/09 10:10:37;;;;;;;12.05;2.10;;;9.60;99.90;;;;;;5127274;28;19919;-48
2023/11/09 10:13:06;;;;;;;13.80;2.60;;;9.50;99.90;;;;;;5126952;28;20039;-50
2023/11/09 10:15:32;;;;;;;8.52;1.60;;;9.50;99.90;;;;;;5128179;28;20080;-49
2023/11/09 10:17:58;;;;;;;11.50;2.33;;;9.50;99.90;;;;;;5127742;28;20031;-49
2023/11/09 10:20:24;;;;;;;11.35;2.55;;;9.50;99.90;;;;;;5128097;28;20259;-50
2023/11/09 10:22:52;;;;;;;8.60;2.22;;;9.70;99.90;;;;;;5128075;28;20110;-49
2023/11/09 10:25:17;;;;;;;7.78;2.08;;;10.00;99.90;;;;;;5126875;28;20088;-49
2023/11/09 10:27:47;;;;;;;9.27;1.90;;;10.20;99.90;;;;;;5126774;28;20023;-49
2023/11/09 10:30:15;;;;;;;15.63;2.08;;;10.30;99.90;;;;;;5127415;28;20067;-47
2023/11/09 10:32:41;;;;;;;11.60;2.22;;;10.50;99.90;;;;;;5127804;28;20024;-49
2023/11/09 10:35:08;;;;;;;5.78;1.98;;;10.50;99.90;;;;;;5127962;28;20066;-50
2023/11/09 10:37:37;;;;;;;7.05;1.35;;;10.40;99.90;;;;;;5127731;28;20091;-46
2023/11/09 10:40:05;;;;;;;7.57;1.27;;;10.40;99.90;;;;;;5126736;28;20047;-48
2023/11/09 10:42:31;;;;;;;8.38;1.38;;;10.20;99.90;;;;;;5127573;28;20285;-48
2023/11/09 10:44:57;;;;;;;12.23;1.65;;;10.10;99.90;;;;;;5126575;28;20043;-49
2023/11/09 10:47:24;;;;;;;21.10;10.48;;;9.80;99.90;;;;;;5126312;28;20031;-51
2023/11/09 10:49:54;;;;;;;15.27;6.07;;;9.40;99.90;;;;;;5126277;28;20065;-52
2023/11/09 10:52:21;;;;;;;11.75;4.43;;;9.10;99.90;;;;;;5127203;28;20035;-50
2023/11/09 10:54:51;;;;;;;31.98;13.63;;;9.20;99.90;;;;;;5126996;28;20300;-47
2023/11/09 10:57:18;;;;;;;23.42;9.30;;;9.10;99.90;;;;;;5126706;28;20035;-47
2023/11/09 10:59:48;;;;;;;69.95;30.00;;;9.00;99.90;;;;;;5126727;28;20073;-49
2023/11/09 11:02:20;;;;;;;5.97;2.33;;;8.90;99.90;;;;;;5125859;28;20277;-47
2023/11/09 11:04:49;;;;;;;22.90;12.30;;;8.90;99.90;;;;;;5125964;28;20039;-48
2023/11/09 11:07:21;;;;;;;7.15;1.83;;;8.90;99.90;;;;;;5125846;28;20058;-50
2023/11/09 11:09:47;;;;;;;10.63;2.30;;;9.00;99.90;;;;;;5109936;28;20043;-50
2023/11/09 11:12:13;;;;;;;12.85;2.67;;;9.50;99.90;;;;;;5108950;28;20166;-49
2023/11/09 11:14:41;;;;;;;8.50;3.38;;;10.30;99.90;;;;;;5125917;28;20044;-49
2023/11/09 11:17:11;;;;;;;18.55;11.15;;;10.50;99.90;;;;;;5125863;28;20030;-56
2023/11/09 11:20:08;;;;;;;8.52;2.53;;;10.10;99.90;;;;;;5126859;28;20035;-48
2023/11/09 11:22:48;;;;;;;14.25;9.13;;;10.00;99.90;;;;;;5126709;28;20043;-49
2023/11/09 11:25:35;;;;;;;14.75;7.93;;;9.90;99.90;;;;;;5125850;28;20035;-48
2023/11/09 11:28:06;;;;;;;8.55;3.15;;;10.10;99.90;;;;;;5125726;28;20072;-50
2023/11/09 11:30:39;;;;;;;9.65;3.03;;;10.10;99.90;;;;;;5125858;28;20181;-50
2023/11/09 11:33:23;;;;;;;10.80;4.75;;;9.90;99.90;;;;;;5109137;28;20039;-51
2023/11/09 11:35:55;;;;;;;13.80;10.73;;;9.80;99.90;;;;;;5126663;28;20033;-52
2023/11/09 11:38:33;;;;;;;12.88;8.77;;;9.80;99.90;;;;;;5126527;28;20042;-49
2023/11/09 11:41:05;;;;;;;7.93;2.60;;;9.80;99.90;;;;;;5124383;28;20019;-51
2023/11/09 11:43:37;;;;;;;11.18;2.42;;;9.80;99.90;;;;;;5126114;28;20058;-50
2023/11/09 11:46:08;;;;;;;12.18;2.53;;;9.70;99.90;;;;;;5126248;28;20033;-51
2023/11/09 11:48:34;;;;;;;20.25;12.30;;;9.70;99.90;;;;;;5108398;28;20036;-50
2023/11/09 11:51:00;;;;;;;13.20;2.80;;;9.70;99.90;;;;;;5126418;28;20031;-48
2023/11/09 11:53:30;;;;;;;13.65;3.10;;;9.50;99.90;;;;;;5125505;28;20034;-48
2023/11/09 11:56:02;;;;;;;13.43;3.05;;;9.50;99.90;;;;;;5125312;28;20063;-51
2023/11/09 11:58:48;;;;;;;115.53;50.97;;;9.50;99.90;;;;;;5126169;28;20042;-50
2023/11/09 12:01:21;;;;;;;145.45;63.92;;;9.60;99.90;;;;;;5126492;28;20031;-49
2023/11/09 12:03:50;;;;;;;30.27;13.65;;;11.80;99.90;;;;;;5125909;28;20269;-47
2023/11/09 12:06:24;;;;;;;37.30;28.90;;;11.70;99.90;;;;;;5124778;28;20038;-48
2023/11/09 12:08:53;;;;;;;25.48;19.42;;;11.30;99.90;;;;;;5124838;28;20124;-46
2023/11/09 12:11:26;;;;;;;14.57;8.75;;;11.00;99.90;;;;;;5124683;28;20229;-48
2023/11/09 12:13:56;;;;;;;11.00;6.40;;;10.80;99.90;;;;;;5124837;28;20015;-50
2023/11/09 12:16:24;;;;;;;9.55;5.10;;;11.70;99.90;;;;;;5125900;28;20023;-50
2023/11/09 12:18:53;;;;;;;14.68;8.25;;;12.30;99.90;;;;;;5125836;28;20051;-50
2023/11/09 12:21:27;;;;;;;13.15;5.50;;;12.40;99.90;;;;;;5124499;28;20185;-50
2023/11/09 12:23:54;;;;;;;13.15;6.13;;;12.10;99.90;;;;;;5124514;28;20038;-51
2023/11/09 12:26:20;;;;;;;11.57;10.38;;;12.20;99.90;;;;;;5125558;28;20297;-48
2023/11/09 12:28:48;;;;;;;7.22;3.10;;;11.80;99.90;;;;;;5107462;28;20035;-49
2023/11/09 12:31:15;;;;;;;9.65;3.45;;;11.60;99.90;;;;;;5125776;28;20034;-50
2023/11/09 12:33:41;;;;;;;7.00;4.43;;;11.50;99.90;;;;;;5125664;28;20019;-51
2023/11/09 12:36:07;;;;;;;12.73;3.08;;;11.20;99.90;;;;;;5125854;28;20152;-51
2023/11/09 12:38:34;;;;;;;7.70;3.92;;;11.10;99.90;;;;;;5124282;28;20055;-50
2023/11/09 12:41:06;;;;;;;111.53;58.80;;;11.10;99.90;;;;;;5124459;28;20016;-49
2023/11/09 12:43:36;;;;;;;38.95;23.75;;;11.30;99.90;;;;;;5125876;28;20099;-50
2023/11/09 12:46:11;;;;;;;136.90;85.25;;;11.20;99.90;;;;;;5125183;28;20039;-48
2023/11/09 12:48:44;;;;;;;35.35;23.73;;;11.10;99.90;;;;;;5125668;28;20035;-50
2023/11/09 12:51:17;;;;;;;12.15;7.60;;;11.10;99.90;;;;;;5124294;28;20023;-48
2023/11/09 12:53:44;;;;;;;7.03;2.30;;;11.10;99.90;;;;;;5127359;28;20181;-47
2023/11/09 12:56:13;;;;;;;7.88;5.80;;;11.10;99.90;;;;;;5128555;28;20069;-49
2023/11/09 12:58:41;;;;;;;7.97;6.23;;;11.00;99.90;;;;;;5129357;28;20031;-50
2023/11/09 13:01:14;;;;;;;10.32;6.57;;;11.30;99.90;;;;;;5128005;28;20023;-50